createdAt,value
2023-01-03T00:01:20.993Z,100524.00
2023-01-03T00:03:47.694Z,100518.59
2023-01-03T00:06:18.311Z,100521.50
2023-01-03T00:08:45.298Z,100521.47
2023-01-03T00:11:14.511Z,100540.00
2023-01-03T00:13:42.340Z,100537.00
2023-01-03T00:16:20.216Z,100537.22
2023-01-03T00:18:47.982Z,100538.50
2023-01-03T00:21:14.568Z,100546.03
2023-01-03T00:23:41.186Z,100546.53
2023-01-03T00:26:12.267Z,100542.97
2023-01-03T00:28:39.114Z,100544.53
2023-01-03T00:31:10.750Z,100536.91
2023-01-03T00:33:39.487Z,100534.47
2023-01-03T00:36:08.416Z,100534.22
2023-01-03T00:38:35.874Z,100536.16
2023-01-03T00:41:11.124Z,100540.50
2023-01-03T00:43:38.891Z,100542.16
2023-01-03T00:46:06.680Z,100537.91
2023-01-03T00:48:33.863Z,100534.69
2023-01-03T00:51:15.015Z,100543.28
2023-01-03T00:53:42.528Z,100540.03
2023-01-03T00:56:12.233Z,100542.97
2023-01-03T00:58:39.127Z,100538.91
2023-01-03T01:01:12.256Z,100536.41
2023-01-03T01:03:42.257Z,100537.97
2023-01-03T01:06:25.176Z,100536.53
2023-01-03T01:08:54.712Z,100538.66
2023-01-03T01:11:21.993Z,100536.72
2023-01-03T01:13:49.588Z,100541.31
2023-01-03T01:16:19.298Z,100544.56
2023-01-03T01:18:47.826Z,100540.25
2023-01-03T01:21:20.967Z,100546.69
2023-01-03T01:23:47.924Z,100548.31
2023-01-03T01:26:19.211Z,100552.53
2023-01-03T01:28:46.823Z,100549.28
2023-01-03T01:31:16.983Z,100552.25
2023-01-03T01:33:44.512Z,100545.47
2023-01-03T01:36:17.247Z,100543.28
2023-01-03T01:38:45.473Z,100543.28
2023-01-03T01:41:36.791Z,100551.38
2023-01-03T01:44:22.468Z,100559.44
2023-01-03T01:46:49.748Z,100556.19
2023-01-03T01:49:21.749Z,100558.81
2023-01-03T01:51:48.464Z,100553.94
2023-01-03T01:54:15.788Z,100560.59
2023-01-03T01:56:51.418Z,100564.03
2023-01-03T01:59:18.045Z,100566.50
2023-01-03T02:01:47.654Z,100565.66
2023-01-03T02:04:19.320Z,100563.53
2023-01-03T02:06:45.984Z,100569.97
2023-01-03T02:09:12.879Z,100574.28
2023-01-03T02:12:17.483Z,100576.44
2023-01-03T02:15:05.129Z,100580.19
2023-01-03T02:17:40.912Z,100580.44
2023-01-03T02:20:19.451Z,100582.63
2023-01-03T02:22:58.380Z,100582.13
2023-01-03T02:25:45.686Z,100580.84
2023-01-03T02:28:35.156Z,100581.41
2023-01-03T02:31:12.741Z,100576.09
2023-01-03T02:33:53.786Z,100578.84
2023-01-03T02:36:47.684Z,100575.91
2023-01-03T02:39:23.626Z,100575.09
2023-01-03T02:42:17.181Z,100583.66
2023-01-03T02:45:36.022Z,100580.84
2023-01-03T02:48:17.583Z,100583.94
2023-01-03T02:50:49.925Z,100580.84
2023-01-03T02:53:25.153Z,100582.66
2023-01-03T02:55:53.392Z,100583.13
2023-01-03T02:58:26.886Z,100585.75
2023-01-03T03:00:56.111Z,100576.63
2023-01-03T03:03:28.855Z,100572.78
2023-01-03T03:06:07.271Z,100578.91
2023-01-03T03:08:34.172Z,100568.97
2023-01-03T03:11:19.396Z,100563.59
2023-01-03T03:13:51.409Z,100570.03
2023-01-03T03:16:41.391Z,100558.03
2023-01-03T03:19:38.566Z,100567.44
2023-01-03T03:22:29.825Z,100566.66
2023-01-03T03:24:59.783Z,100575.63
2023-01-03T03:27:48.327Z,100573.91
2023-01-03T03:30:18.061Z,100576.75
2023-01-03T03:32:48.655Z,100569.91
2023-01-03T03:35:19.410Z,100574.94
2023-01-03T03:37:48.311Z,100570.03
2023-01-03T03:40:33.722Z,100575.91
2023-01-03T03:43:34.923Z,100566.13
2023-01-03T03:46:10.358Z,100574.28
2023-01-03T03:49:07.307Z,100574.94
2023-01-03T03:51:36.879Z,100564.88
2023-01-03T03:54:10.827Z,100563.88
2023-01-03T03:56:40.805Z,100567.22
2023-01-03T03:59:09.508Z,100559.22
2023-01-03T04:01:39.959Z,100560.63
2023-01-03T04:04:12.489Z,100561.47
2023-01-03T04:06:44.311Z,100568.13
2023-01-03T04:09:12.155Z,100564.53
2023-01-03T04:11:38.835Z,100565.03
2023-01-03T04:14:05.415Z,100563.88
2023-01-03T04:16:32.083Z,100569.25
2023-01-03T04:18:58.827Z,100577.06
2023-01-03T04:21:25.868Z,100578.53
2023-01-03T04:23:52.454Z,100582.84
2023-01-03T04:26:19.063Z,100584.75
2023-01-03T04:28:45.627Z,100586.59
2023-01-03T04:31:12.376Z,100579.69
2023-01-03T04:33:39.050Z,100585.72
2023-01-03T04:36:05.790Z,100581.50
2023-01-03T04:38:32.486Z,100582.63
2023-01-03T04:41:06.989Z,100594.53
2023-01-03T04:43:52.510Z,100588.78
2023-01-03T04:46:19.709Z,100583.00
2023-01-03T04:48:46.353Z,100579.56
2023-01-03T04:51:14.512Z,100588.50
2023-01-03T04:53:41.074Z,100597.25
2023-01-03T04:56:08.062Z,100596.81
2023-01-03T04:58:35.047Z,100590.94
2023-01-03T05:01:04.441Z,100596.66
2023-01-03T05:03:31.636Z,100597.78
2023-01-03T05:06:03.072Z,100601.88
2023-01-03T05:08:29.925Z,100605.63
2023-01-03T05:10:56.988Z,100605.06
2023-01-03T05:13:23.588Z,100604.22
2023-01-03T05:15:50.230Z,100603.66
2023-01-03T05:18:17.062Z,100607.09
2023-01-03T05:21:02.856Z,100606.22
2023-01-03T05:23:47.841Z,100599.44
2023-01-03T05:26:16.616Z,100611.81
2023-01-03T05:28:46.496Z,100608.31
2023-01-03T05:31:13.309Z,100603.41
2023-01-03T05:33:41.315Z,100601.31
2023-01-03T05:36:08.954Z,100612.97
2023-01-03T05:38:36.204Z,100607.09
2023-01-03T05:41:02.822Z,100611.50
2023-01-03T05:43:29.410Z,100611.31
2023-01-03T05:45:56.211Z,100614.88
2023-01-03T05:48:23.054Z,100619.78
2023-01-03T05:50:52.562Z,100606.88
2023-01-03T05:53:19.215Z,100606.38
2023-01-03T05:55:45.861Z,100612.91
2023-01-03T05:58:12.988Z,100610.00
2023-01-03T06:00:40.202Z,100608.00
2023-01-03T06:03:07.679Z,100608.53
2023-01-03T06:05:34.393Z,100601.72
2023-01-03T06:08:02.116Z,100604.63
2023-01-03T06:10:29.066Z,100610.13
2023-01-03T06:12:55.855Z,100617.19
2023-01-03T06:15:22.488Z,100623.72
2023-01-03T06:17:57.507Z,100621.22
2023-01-03T06:20:26.560Z,100629.03
2023-01-03T06:22:54.706Z,100620.91
2023-01-03T06:25:22.096Z,100611.53
2023-01-03T06:27:48.788Z,100615.41
2023-01-03T06:30:15.925Z,100620.88
2023-01-03T06:32:43.361Z,100616.63
2023-01-03T06:35:10.349Z,100620.16
2023-01-03T06:37:37.027Z,100623.41
2023-01-03T06:40:04.262Z,100628.81
2023-01-03T06:42:45.258Z,100635.03
2023-01-03T06:45:32.693Z,100639.09
2023-01-03T06:48:23.663Z,100633.13
2023-01-03T06:51:09.566Z,100633.66
2023-01-03T06:53:39.304Z,100631.84
2023-01-03T06:56:06.445Z,100631.84
2023-01-03T06:58:33.299Z,100628.03
2023-01-03T07:01:04.786Z,100621.16
2023-01-03T07:03:32.722Z,100632.84
2023-01-03T07:05:59.371Z,100636.69
2023-01-03T07:08:26.003Z,100640.78
2023-01-03T07:10:52.771Z,100645.44
2023-01-03T07:13:38.211Z,100643.16
2023-01-03T07:16:05.051Z,100646.75
2023-01-03T07:18:32.060Z,100651.19
2023-01-03T07:20:58.708Z,100647.63
2023-01-03T07:23:25.282Z,100648.63
2023-01-03T07:25:55.535Z,100647.50
2023-01-03T07:28:22.162Z,100648.56
2023-01-03T07:30:48.820Z,100659.31
2023-01-03T07:33:16.940Z,100659.81
2023-01-03T07:35:43.986Z,100663.84
2023-01-03T07:38:12.656Z,100659.88
2023-01-03T07:40:39.746Z,100658.28
2023-01-03T07:43:25.309Z,100660.72
2023-01-03T07:45:51.997Z,100666.03
2023-01-03T07:48:18.674Z,100672.78
2023-01-03T07:50:45.436Z,100671.69
2023-01-03T07:53:17.126Z,100671.69
2023-01-03T07:55:48.032Z,100676.25
2023-01-03T07:58:14.738Z,100693.75
2023-01-03T08:00:42.198Z,100683.44
2023-01-03T08:09:12.080Z,100682.03
2023-01-03T08:11:58.135Z,100694.72
2023-01-03T08:14:26.487Z,100699.81
2023-01-03T08:16:54.461Z,100706.50
2023-01-03T08:19:21.027Z,100703.25
2023-01-03T08:21:47.648Z,100708.13
2023-01-03T08:24:14.261Z,100706.50
2023-01-03T08:26:40.906Z,100711.31
2023-01-03T08:29:07.834Z,100721.53
2023-01-03T08:31:38.065Z,100724.22
2023-01-03T08:34:12.040Z,100718.56
2023-01-03T08:36:49.512Z,100727.00
2023-01-03T08:39:19.888Z,100734.56
2023-01-03T08:41:52.971Z,100732.78
2023-01-03T08:44:19.586Z,100725.59
2023-01-03T08:46:51.387Z,100726.78
2023-01-03T08:49:19.289Z,100730.59
2023-01-03T08:51:46.131Z,100738.09
2023-01-03T08:54:12.898Z,100735.97
2023-01-03T08:56:40.207Z,100728.47
2023-01-03T08:59:07.242Z,100737.94
2023-01-03T09:01:34.211Z,100749.84
2023-01-03T09:04:01.027Z,100745.91
2023-01-03T09:06:27.703Z,100749.16
2023-01-03T09:08:54.277Z,100742.97
2023-01-03T09:11:20.833Z,100736.75
2023-01-03T09:13:47.641Z,100747.53
2023-01-03T09:16:16.560Z,100747.84
2023-01-03T09:18:43.726Z,100747.28
2023-01-03T09:21:10.493Z,100745.41
2023-01-03T09:23:37.676Z,100747.53
2023-01-03T09:26:05.485Z,100756.19
2023-01-03T09:28:32.329Z,100758.88
2023-01-03T09:30:59.007Z,100750.16
2023-01-03T09:33:25.907Z,100757.97
2023-01-03T09:35:54.574Z,100757.25
2023-01-03T09:38:22.657Z,100760.25
2023-01-03T09:41:07.957Z,100757.81
2023-01-03T09:44:01.244Z,100762.06
2023-01-03T09:46:29.524Z,100760.94
2023-01-03T09:48:56.999Z,100754.44
2023-01-03T09:51:52.955Z,100761.44
2023-01-03T09:54:44.026Z,100756.28
2023-01-03T09:57:44.381Z,100760.56
2023-01-03T10:00:35.601Z,100758.09
2023-01-03T10:03:51.150Z,100759.00
2023-01-03T10:06:43.678Z,100766.41
2023-01-03T10:09:47.720Z,100753.53
2023-01-03T10:12:20.150Z,100749.41
2023-01-03T10:14:52.938Z,100751.66
2023-01-03T10:17:27.636Z,100747.16
2023-01-03T10:20:00.343Z,100743.16
2023-01-03T10:22:28.813Z,100741.09
2023-01-03T10:25:04.178Z,100736.84
2023-01-03T10:27:43.780Z,100747.97
2023-01-03T10:30:16.416Z,100755.53
2023-01-03T10:32:56.713Z,100755.91
2023-01-03T10:35:34.774Z,100754.09
2023-01-03T10:38:01.529Z,100750.56
2023-01-03T10:40:58.502Z,100745.72
2023-01-03T10:43:29.769Z,100739.31
2023-01-03T10:45:57.871Z,100739.91
2023-01-03T10:48:52.667Z,100741.31
2023-01-03T10:51:28.955Z,100743.72
2023-01-03T10:54:00.144Z,100738.13
2023-01-03T10:56:30.175Z,100738.44
2023-01-03T10:59:12.071Z,100733.25
2023-01-03T11:01:39.654Z,100741.34
2023-01-03T11:04:15.838Z,100737.31
2023-01-03T11:06:58.700Z,100728.72
2023-01-03T11:09:31.658Z,100733.53
2023-01-03T11:12:23.249Z,100729.19
2023-01-03T11:14:51.795Z,100718.41
2023-01-03T11:17:21.471Z,100721.16
2023-01-03T11:19:49.263Z,100716.06
2023-01-03T11:22:45.862Z,100717.41
2023-01-03T11:25:38.851Z,100719.06
2023-01-03T11:28:15.374Z,100712.34
2023-01-03T11:30:59.333Z,100717.97
2023-01-03T11:34:08.208Z,100710.94
2023-01-03T11:36:49.013Z,100713.09
2023-01-03T11:39:53.262Z,100716.88
2023-01-03T11:42:37.219Z,100716.34
2023-01-03T11:45:35.047Z,100708.91
2023-01-03T11:48:23.293Z,100706.25
2023-01-03T11:51:18.875Z,100703.25
2023-01-03T11:54:01.702Z,100703.00
2023-01-03T11:56:28.799Z,100693.88
2023-01-03T11:59:04.283Z,100690.66
2023-01-03T12:01:51.146Z,100695.81
2023-01-03T12:04:17.815Z,100692.59
2023-01-03T12:07:46.976Z,100691.78
2023-01-03T12:10:10.347Z,100682.38
2023-01-03T12:13:23.851Z,100678.09
2023-01-03T12:16:04.584Z,100677.81
2023-01-03T12:18:55.717Z,100683.75
2023-01-03T12:21:34.296Z,100672.41
2023-01-03T12:24:15.904Z,100675.63
2023-01-03T12:26:47.827Z,100678.31
2023-01-03T12:29:28.886Z,100681.25
2023-01-03T12:32:14.947Z,100679.59
2023-01-03T12:35:03.174Z,100684.22
2023-01-03T12:37:38.611Z,100676.13
2023-01-03T12:40:23.020Z,100672.34
2023-01-03T12:43:04.519Z,100678.09
2023-01-03T12:45:56.488Z,100678.09
2023-01-03T12:48:29.091Z,100675.66
2023-01-03T12:50:56.170Z,100676.78
2023-01-03T12:53:43.201Z,100673.00
2023-01-03T12:56:28.981Z,100659.81
2023-01-03T12:59:40.509Z,100659.28
2023-01-03T13:02:18.362Z,100656.84
2023-01-03T13:04:47.868Z,100655.56
2023-01-03T13:07:29.040Z,100644.22
2023-01-03T13:10:01.344Z,100644.50
2023-01-03T13:12:32.467Z,100649.38
2023-01-03T13:15:27.406Z,100648.81
2023-01-03T13:18:21.145Z,100652.06
2023-01-03T13:20:52.541Z,100650.44
2023-01-03T13:23:31.035Z,100656.94
2023-01-03T13:26:04.977Z,100645.34
2023-01-03T13:28:35.281Z,100643.13
2023-01-03T13:31:35.854Z,100640.16
2023-01-03T13:34:32.124Z,100647.09
2023-01-03T13:37:07.984Z,100637.09
2023-01-03T13:39:38.740Z,100633.03
2023-01-03T13:42:05.751Z,100629.00
2023-01-03T13:44:32.381Z,100630.88
2023-01-03T13:46:59.380Z,100630.56
2023-01-03T13:49:28.925Z,100627.06
2023-01-03T13:51:59.624Z,100633.56
2023-01-03T13:54:35.175Z,100628.38
2023-01-03T13:57:25.998Z,100638.34
2023-01-03T13:59:53.395Z,100641.28
2023-01-03T14:02:47.655Z,100636.69
2023-01-03T14:05:39.040Z,100638.31
2023-01-03T14:08:05.604Z,100632.63
2023-01-03T14:10:38.125Z,100634.78
2023-01-03T14:13:07.666Z,100626.97
2023-01-03T14:15:34.610Z,100633.97
2023-01-03T14:18:12.701Z,100631.00
2023-01-03T14:20:43.666Z,100640.50
2023-01-03T14:26:15.666Z,100639.44
2023-01-03T14:28:49.297Z,100638.63
2023-01-03T14:31:23.373Z,100635.66
2023-01-03T14:33:53.679Z,100641.06
2023-01-03T14:36:20.357Z,100639.44
2023-01-03T14:39:07.173Z,100641.03
2023-01-03T14:41:39.340Z,100642.66
2023-01-03T14:44:16.663Z,100643.44
2023-01-03T14:46:53.550Z,100645.88
2023-01-03T14:49:43.804Z,100656.34
2023-01-03T14:52:27.425Z,100645.78
2023-01-03T14:55:01.640Z,100653.91
2023-01-03T14:57:30.898Z,100648.50
2023-01-03T15:00:01.716Z,100660.66
2023-01-03T15:02:35.334Z,100658.72
2023-01-03T15:05:02.951Z,100661.41
2023-01-03T15:07:38.892Z,100653.53
2023-01-03T15:10:37.339Z,100657.59
2023-01-03T15:13:05.177Z,100668.94
2023-01-03T15:15:39.319Z,100667.31
2023-01-03T15:18:09.723Z,100658.63
2023-01-03T15:20:43.791Z,100654.31
2023-01-03T15:23:36.535Z,100664.56
2023-01-03T15:26:04.456Z,100671.09
2023-01-03T15:28:50.036Z,100671.59
2023-01-03T15:31:46.348Z,100671.25
2023-01-03T15:34:40.600Z,100670.22
2023-01-03T15:37:17.086Z,100672.09
2023-01-03T15:39:52.816Z,100669.91
2023-01-03T15:42:58.686Z,100673.38
2023-01-03T15:45:35.498Z,100668.81
2023-01-03T15:48:04.932Z,100665.03
2023-01-03T15:50:41.463Z,100670.44
2023-01-03T15:53:19.581Z,100667.44
2023-01-03T15:55:46.674Z,100662.06
2023-01-03T15:58:13.233Z,100663.41
2023-01-03T16:00:40.011Z,100663.94
2023-01-03T16:03:13.934Z,100669.03
2023-01-03T16:05:40.699Z,100672.78
2023-01-03T16:08:25.339Z,100669.75
2023-01-03T16:10:52.762Z,100671.06
2023-01-03T16:13:21.013Z,100668.31
2023-01-03T16:15:48.170Z,100675.00
2023-01-03T16:18:17.831Z,100677.63
2023-01-03T16:20:44.834Z,100677.03
2023-01-03T16:23:29.423Z,100670.44
2023-01-03T16:25:57.198Z,100682.81
2023-01-03T16:28:25.339Z,100683.88
2023-01-03T16:31:02.674Z,100684.41
2023-01-03T16:33:36.634Z,100687.34
2023-01-03T16:36:04.509Z,100694.63
2023-01-03T16:38:33.473Z,100685.13
2023-01-03T16:41:00.583Z,100685.97
2023-01-03T16:43:27.912Z,100687.09
2023-01-03T16:45:58.869Z,100689.28
2023-01-03T16:48:29.185Z,100688.53
2023-01-03T16:50:55.841Z,100689.88
2023-01-03T16:53:52.214Z,100685.03
2023-01-03T16:56:18.914Z,100690.81
2023-01-03T16:58:45.512Z,100697.59
2023-01-03T17:01:13.797Z,100691.88
2023-01-03T17:03:42.226Z,100689.94
2023-01-03T17:06:37.388Z,100685.00
2023-01-03T17:09:12.590Z,100694.72
2023-01-03T17:11:39.616Z,100696.88
2023-01-03T17:14:06.520Z,100698.50
2023-01-03T17:16:34.051Z,100700.13
2023-01-03T17:19:00.727Z,100698.75
2023-01-03T17:21:33.223Z,100701.13
2023-01-03T17:24:08.283Z,100693.81
2023-01-03T17:26:35.961Z,100704.28
2023-01-03T17:29:06.017Z,100711.22
2023-01-03T17:31:33.014Z,100716.59
2023-01-03T17:34:00.212Z,100712.28
2023-01-03T17:36:31.766Z,100714.19
2023-01-03T17:39:02.987Z,100715.47
2023-01-03T17:41:30.364Z,100725.19
2023-01-03T17:43:56.936Z,100719.31
2023-01-03T17:46:44.914Z,100719.84
2023-01-03T17:49:25.645Z,100721.72
2023-01-03T17:51:55.931Z,100731.09
2023-01-03T17:54:28.873Z,100733.75
2023-01-03T17:56:59.468Z,100732.31
2023-01-03T17:59:27.030Z,100737.06
2023-01-03T18:01:54.765Z,100741.56
2023-01-03T18:04:38.262Z,100740.44
2023-01-03T18:07:18.568Z,100738.25
2023-01-03T18:09:45.186Z,100737.38
2023-01-03T18:12:17.852Z,100746.75
2023-01-03T18:14:45.648Z,100744.34
2023-01-03T18:17:24.311Z,100747.75
2023-01-03T18:19:50.890Z,100753.66
2023-01-03T18:22:18.068Z,100749.06
2023-01-03T18:24:44.769Z,100754.78
2023-01-03T18:27:12.549Z,100752.97
2023-01-03T18:29:39.417Z,100752.47
2023-01-03T18:32:17.806Z,100755.91
2023-01-03T18:34:44.347Z,100753.22
2023-01-03T18:37:10.962Z,100757.53
2023-01-03T18:39:37.582Z,100751.34
2023-01-03T18:42:22.870Z,100767.19
2023-01-03T18:44:49.623Z,100755.84
2023-01-03T18:47:17.169Z,100751.53
2023-01-03T18:49:43.762Z,100755.50
2023-01-03T18:52:24.776Z,100755.22
2023-01-03T18:54:52.420Z,100757.41
2023-01-03T18:57:19.654Z,100753.88
2023-01-03T18:59:46.527Z,100747.94
2023-01-03T19:02:19.037Z,100747.63
2023-01-03T19:04:51.114Z,100754.66
2023-01-03T19:07:37.000Z,100744.34
2023-01-03T19:10:07.929Z,100742.72
2023-01-03T19:12:38.496Z,100743.22
2023-01-03T19:15:21.860Z,100740.94
2023-01-03T19:17:49.069Z,100748.97
2023-01-03T19:20:16.097Z,100743.75
2023-01-03T19:22:46.632Z,100741.78
2023-01-03T19:25:20.047Z,100740.63
2023-01-03T19:27:49.093Z,100734.13
2023-01-03T19:30:24.187Z,100733.00
2023-01-03T19:32:55.904Z,100723.75
2023-01-03T19:35:23.507Z,100716.72
2023-01-03T19:37:51.121Z,100712.69
2023-01-03T19:40:21.342Z,100699.94
2023-01-03T19:42:54.499Z,100697.25
2023-01-03T19:45:37.486Z,100701.00
2023-01-03T19:48:14.896Z,100698.59
2023-01-03T19:50:41.594Z,100696.13
2023-01-03T19:53:08.251Z,100699.03
2023-01-03T19:55:39.081Z,100690.41
2023-01-03T19:58:15.079Z,100683.88
2023-01-03T20:00:41.764Z,100684.38
2023-01-03T20:03:36.061Z,100681.91
2023-01-03T20:06:02.934Z,100687.78
2023-01-03T20:08:29.545Z,100692.59
2023-01-03T20:10:56.980Z,100694.50
2023-01-03T20:13:27.404Z,100688.56
2023-01-03T20:15:57.437Z,100692.03
2023-01-03T20:18:28.887Z,100681.78
2023-01-03T20:20:58.958Z,100687.16
2023-01-03T20:23:29.942Z,100678.03
2023-01-03T20:25:56.501Z,100678.09
2023-01-03T20:28:31.210Z,100670.59
2023-01-03T20:30:59.212Z,100671.66
2023-01-03T20:33:26.064Z,100669.53
2023-01-03T20:36:11.199Z,100662.53
2023-01-03T20:38:45.085Z,100666.28
2023-01-03T20:41:14.539Z,100664.97
2023-01-03T20:43:42.901Z,100669.53
2023-01-03T20:46:17.394Z,100666.28
2023-01-03T20:48:44.648Z,100682.41
2023-01-03T20:51:13.836Z,100683.47
2023-01-03T20:53:42.992Z,100671.66
2023-01-03T20:56:12.998Z,100670.09
2023-01-03T20:58:40.120Z,100671.50
2023-01-03T21:01:10.354Z,100676.94
2023-01-03T21:03:38.253Z,100670.50
2023-01-03T21:06:19.618Z,100669.13
2023-01-03T21:08:55.380Z,100670.78
2023-01-03T21:11:35.107Z,100667.50
2023-01-03T21:14:02.311Z,100680.47
2023-01-03T21:16:36.623Z,100668.38
2023-01-03T21:19:08.203Z,100665.94
2023-01-03T21:21:35.105Z,100661.06
2023-01-03T21:24:02.097Z,100653.22
2023-01-03T21:26:28.726Z,100654.56
2023-01-03T21:28:55.557Z,100666.59
2023-01-03T21:31:23.119Z,100658.19
2023-01-03T21:33:50.186Z,100644.75
2023-01-03T21:36:28.763Z,100656.50
2023-01-03T21:38:56.488Z,100642.97
2023-01-03T21:41:31.854Z,100636.75
2023-01-03T21:44:04.438Z,100634.66
2023-01-03T21:46:31.441Z,100625.50
2023-01-03T21:48:58.140Z,100630.03
2023-01-03T21:51:35.441Z,100634.22
2023-01-03T21:54:06.326Z,100631.72
2023-01-03T21:56:32.936Z,100641.25
2023-01-03T21:58:59.470Z,100637.19
2023-01-03T22:01:26.213Z,100642.00
2023-01-03T22:04:11.494Z,100628.78
2023-01-03T22:06:38.446Z,100635.44
2023-01-03T22:09:06.347Z,100637.53
2023-01-03T22:11:33.001Z,100627.28
2023-01-03T22:14:00.954Z,100640.97
2023-01-03T22:16:27.811Z,100643.06
2023-01-03T22:18:54.436Z,100640.63
2023-01-03T22:21:21.337Z,100637.94
2023-01-03T22:23:47.915Z,100638.50
2023-01-03T22:26:16.290Z,100629.38
2023-01-03T22:28:45.399Z,100624.00
2023-01-03T22:31:16.533Z,100613.75
2023-01-03T22:33:44.725Z,100627.19
2023-01-03T22:36:11.843Z,100610.50
2023-01-03T22:38:39.428Z,100616.66
2023-01-03T22:41:13.585Z,100612.63
2023-01-03T22:43:40.227Z,100606.66
2023-01-03T22:46:09.171Z,100610.41
2023-01-03T22:48:36.343Z,100613.09
2023-01-03T22:51:09.302Z,100604.47
2023-01-03T22:53:37.249Z,100608.19
2023-01-03T22:56:06.445Z,100616.50
2023-01-03T22:58:34.354Z,100625.63
2023-01-03T23:01:09.439Z,100621.88
2023-01-03T23:03:36.275Z,100619.53
2023-01-03T23:06:07.399Z,100615.22
2023-01-03T23:08:35.498Z,100604.47
2023-01-03T23:11:34.857Z,100598.84
2023-01-03T23:14:10.597Z,100605.03
2023-01-03T23:16:38.147Z,100599.75
2023-01-03T23:19:07.659Z,100586.88
2023-01-03T23:21:35.224Z,100589.06
2023-01-03T23:24:01.933Z,100578.31
2023-01-03T23:26:28.705Z,100581.00
2023-01-03T23:28:56.713Z,100573.50
2023-01-03T23:31:23.584Z,100576.75
2023-01-03T23:33:50.430Z,100561.78
2023-01-03T23:36:17.603Z,100564.47
2023-01-03T23:38:44.160Z,100562.97
2023-01-03T23:41:10.764Z,100560.84
2023-01-03T23:43:38.193Z,100560.34
2023-01-03T23:46:06.137Z,100561.97
2023-01-03T23:48:33.258Z,100554.97
2023-01-03T23:51:05.060Z,100556.31
2023-01-03T23:53:32.049Z,100545.34
2023-01-03T23:55:59.000Z,100541.09
2023-01-03T23:58:25.598Z,100542.72
